Time;durP1;ratioP1;P1;durP2;ratioP2;P2;SDS_P1;SDS_P2;PMS_P1;PMS_P2;Temp;Humidity;BMP_temperature;BMP_pressure;BME280_temperature;BME280_humidity;BME280_pressure;Samples;Min_cycle;Max_cycle;Signal;HPM_P1;HPM_P2
2021/11/27 00:02:29;;;;;;;1.20;1.09;;;;;;;2.63;92.22;96509.06;2007649;78;34248;-76
2021/11/27 00:05:34;;;;;;;1.64;1.39;;;;;;;2.64;92.33;96508.19;2008498;81;20445;-76
2021/11/27 00:08:37;;;;;;;1.75;1.11;;;;;;;2.66;92.24;96504.72;2008579;81;20360;-76
2021/11/27 00:11:40;;;;;;;1.25;0.95;;;;;;;2.68;92.13;96489.31;2011235;81;20338;-76
2021/11/27 00:14:43;;;;;;;3.66;1.45;;;;;;;2.64;91.95;96493.66;2012268;81;20321;-76
2021/11/27 00:17:46;;;;;;;2.60;1.50;;;;;;;2.65;92.09;96494.50;2011255;79;28889;-76
2021/11/27 00:21:02;;;;;;;2.51;0.93;;;;;;;2.69;92.13;96483.31;2010932;80;20333;-75
2021/11/27 00:24:06;;;;;;;1.29;1.19;;;;;;;2.69;92.05;96483.31;2012008;81;20317;-76
2021/11/27 00:27:09;;;;;;;2.24;1.14;;;;;;;2.67;92.01;96477.38;2012485;81;20515;-76
2021/11/27 00:30:16;;;;;;;1.85;1.40;;;;;;;2.69;92.11;96471.38;2011289;81;20388;-76
2021/11/27 00:33:19;;;;;;;1.61;1.30;;;;;;;2.68;92.13;96469.66;2073337;70;21570;-76
2021/11/27 00:36:22;;;;;;;1.39;1.10;;;;;;;2.70;92.10;96465.38;2016317;80;20549;-74
2021/11/27 00:39:26;;;;;;;1.29;1.19;;;;;;;2.69;91.92;96463.69;2016265;80;20327;-74
2021/11/27 00:42:28;;;;;;;1.10;1.00;;;;;;;2.71;91.88;96455.97;2016998;80;20400;-74
2021/11/27 00:45:31;;;;;;;1.71;1.15;;;;;;;2.76;91.80;96459.28;2015344;78;53956;-74
2021/11/27 00:48:34;;;;;;;2.94;1.44;;;;;;;2.70;91.72;96455.13;2017085;80;20331;-75
2021/11/27 00:51:37;;;;;;;1.51;1.38;;;;;;;2.72;91.79;96466.19;2015486;80;20918;-75
2021/11/27 00:54:40;;;;;;;1.31;1.09;;;;;;;2.70;91.72;96460.25;2014294;80;20340;-74
2021/11/27 00:57:43;;;;;;;1.20;1.10;;;;;;;2.67;91.74;96456.88;2013988;80;20344;-75
2021/11/27 01:00:49;;;;;;;1.65;1.31;;;;;;;2.66;91.72;96450.06;2012666;78;24350;-75
2021/11/27 01:03:54;;;;;;;2.21;1.20;;;;;;;2.63;91.83;96448.44;2013523;80;20323;-75
2021/11/27 01:06:57;;;;;;;1.50;1.40;;;;;;;2.62;92.03;96449.31;2014538;80;20343;-75
2021/11/27 01:10:00;;;;;;;2.81;1.30;;;;;;;2.64;92.19;96442.44;2014359;80;20349;-75
2021/11/27 01:13:03;;;;;;;1.60;1.20;;;;;;;2.65;92.02;96436.44;2012565;80;20356;-75
2021/11/27 01:16:07;;;;;;;3.15;1.34;;;;;;;2.67;92.11;96433.84;2008951;78;23259;-77
2021/11/27 01:19:10;;;;;;;1.44;1.33;;;;;;;2.66;92.04;96427.88;2014573;80;20529;-75
2021/11/27 01:22:18;;;;;;;3.26;1.17;;;;;;;2.65;92.16;96426.19;2014949;80;20372;-77
2021/11/27 01:25:22;;;;;;;1.42;1.29;;;;;;;2.66;92.41;96438.13;2014165;80;20860;-75
2021/11/27 01:28:25;;;;;;;1.34;1.20;;;;;;;2.65;92.43;96435.59;2012679;80;20429;-74
2021/11/27 01:31:28;;;;;;;1.48;1.25;;;;;;;2.67;92.54;96433.84;2011677;77;23756;-75
2021/11/27 01:34:31;;;;;;;1.20;1.10;;;;;;;2.69;92.54;96432.06;2012573;80;20377;-75
2021/11/27 01:37:34;;;;;;;1.59;1.20;;;;;;;2.66;92.36;96416.78;2012019;80;20415;-74
2021/11/27 01:40:37;;;;;;;1.55;1.34;;;;;;;2.66;92.50;96427.03;2007783;80;20470;-74
2021/11/27 01:43:42;;;;;;;1.20;1.10;;;;;;;2.70;92.54;96423.56;2013611;80;20361;-74
2021/11/27 01:46:44;;;;;;;1.60;1.04;;;;;;;2.72;92.41;96421.78;2008026;78;22332;-75
2021/11/27 01:49:48;;;;;;;1.10;1.00;;;;;;;2.71;92.34;96425.22;2006550;81;20399;-77
2021/11/27 01:52:51;;;;;;;2.20;1.00;;;;;;;2.70;92.56;96421.81;2007937;81;20343;-74
2021/11/27 01:56:00;;;;;;;1.00;1.00;;;;;;;2.71;92.36;96426.06;2007148;81;20324;-74
2021/11/27 01:59:04;;;;;;;1.76;1.15;;;;;;;2.68;92.22;96426.13;2008033;81;20337;-74
2021/11/27 02:02:10;;;;;;;0.94;0.91;;;;;;;2.68;92.36;96426.13;2007412;78;27025;-74
2021/11/27 02:05:14;;;;;;;0.88;0.88;;;;;;;2.71;92.31;96427.78;2008458;81;20734;-74
2021/11/27 02:08:17;;;;;;;1.20;1.10;;;;;;;2.67;92.26;96427.00;2007824;81;20332;-74
2021/11/27 02:11:25;;;;;;;0.84;0.84;;;;;;;2.67;92.30;96426.16;2007795;81;20447;-74
2021/11/27 02:14:28;;;;;;;1.26;1.10;;;;;;;2.67;92.19;96413.34;2007899;81;20457;-74
2021/11/27 02:17:30;;;;;;;1.23;1.13;;;;;;;2.68;92.24;96421.00;2012472;78;25922;-74
2021/11/27 02:20:39;;;;;;;1.09;0.99;;;;;;;2.67;92.15;96421.03;2012980;80;20319;-74
2021/11/27 02:23:43;;;;;;;1.20;1.02;;;;;;;2.65;92.13;96420.22;2014073;80;20396;-74
2021/11/27 02:26:46;;;;;;;1.04;0.93;;;;;;;2.67;92.26;96413.34;2011792;80;20205;-74
2021/11/27 02:29:49;;;;;;;1.33;1.23;;;;;;;2.68;92.28;96412.47;2015425;80;20436;-75
2021/11/27 02:32:52;;;;;;;1.19;0.94;;;;;;;2.69;92.07;96411.59;2015198;77;64042;-75
2021/11/27 02:35:55;;;;;;;0.99;0.81;;;;;;;2.68;92.14;96400.50;2016235;80;20351;-75
2021/11/27 02:38:59;;;;;;;1.40;0.94;;;;;;;2.72;92.13;96407.25;2016934;80;20323;-75
2021/11/27 02:42:04;;;;;;;0.80;0.70;;;;;;;2.72;92.21;96396.19;2016091;80;20528;-75
2021/11/27 02:45:10;;;;;;;1.24;1.02;;;;;;;2.71;92.19;96408.16;2016121;80;20421;-75
2021/11/27 02:48:13;;;;;;;1.04;1.02;;;;;;;2.73;92.32;96402.97;2012827;78;48015;-75
2021/11/27 02:51:16;;;;;;;0.95;0.93;;;;;;;2.76;92.30;96412.31;2012492;81;20300;-75
2021/11/27 02:54:20;;;;;;;0.71;0.71;;;;;;;2.76;92.38;96413.16;2011415;81;20340;-75
2021/11/27 02:57:23;;;;;;;0.96;0.90;;;;;;;2.72;92.25;96409.00;2012689;81;20442;-75
2021/11/27 03:00:26;;;;;;;0.80;0.80;;;;;;;2.73;92.53;96413.22;2013383;78;56593;-74
2021/11/27 03:03:29;;;;;;;1.01;0.93;;;;;;;2.73;92.57;96406.38;2014008;81;20392;-74
2021/11/27 03:06:33;;;;;;;0.89;0.89;;;;;;;2.75;92.54;96408.06;2012926;81;20563;-75
2021/11/27 03:09:36;;;;;;;0.90;0.70;;;;;;;2.73;92.47;96402.97;2012736;81;20809;-76
2021/11/27 03:12:39;;;;;;;0.81;0.81;;;;;;;2.74;92.39;96396.97;2010937;81;20308;-76
2021/11/27 03:15:41;;;;;;;0.94;0.90;;;;;;;2.75;92.26;96405.50;2013001;77;67612;-76
2021/11/27 03:18:45;;;;;;;0.77;0.77;;;;;;;2.74;92.26;96399.53;2014062;81;20357;-76
2021/11/27 03:21:48;;;;;;;0.94;0.76;;;;;;;2.75;92.31;96401.22;2013404;80;20513;-76
2021/11/27 03:24:51;;;;;;;0.74;0.69;;;;;;;2.75;92.34;96408.91;2012909;80;20424;-75
2021/11/27 03:27:54;;;;;;;0.70;0.70;;;;;;;2.72;92.23;96394.47;2014465;81;20470;-75
2021/11/27 03:30:57;;;;;;;0.70;0.70;;;;;;;2.74;92.41;96396.97;2013696;78;36278;-75
2021/11/27 03:34:01;;;;;;;1.17;0.70;;;;;;;2.77;92.41;96396.91;2019580;80;20331;-75
2021/11/27 03:37:04;;;;;;;1.06;0.82;;;;;;;2.76;92.33;96395.22;2019301;80;20350;-77
2021/11/27 03:40:09;;;;;;;0.95;0.82;;;;;;;2.77;92.27;96394.34;2020791;80;20387;-75
2021/11/27 03:43:12;;;;;;;0.70;0.70;;;;;;;2.77;92.21;96391.78;2019483;80;20314;-75
2021/11/27 03:46:15;;;;;;;0.84;0.80;;;;;;;2.72;92.06;96386.78;2019302;77;69421;-75
2021/11/27 03:49:27;;;;;;;1.55;0.70;;;;;;;2.72;92.36;96397.03;2019536;80;20566;-75
2021/11/27 03:52:30;;;;;;;0.71;0.71;;;;;;;2.72;92.39;96397.03;2020112;80;20331;-75
2021/11/27 03:55:35;;;;;;;0.90;0.90;;;;;;;2.71;92.48;96404.75;2020712;80;20793;-75
2021/11/27 03:58:38;;;;;;;0.60;0.60;;;;;;;2.70;92.45;96400.50;2022334;80;20423;-74
2021/11/27 04:01:41;;;;;;;0.70;0.70;;;;;;;2.69;92.63;96403.91;2019143;80;20352;-75
2021/11/27 04:04:44;;;;;;;0.85;0.80;;;;;;;2.72;92.78;96414.09;2019417;80;20432;-75
2021/11/27 04:07:52;;;;;;;1.02;0.71;;;;;;;2.69;92.71;96412.47;2020640;80;20315;-75
2021/11/27 04:10:55;;;;;;;0.60;0.60;;;;;;;2.73;92.81;96418.34;2018671;80;20364;-74
2021/11/27 04:13:59;;;;;;;0.70;0.70;;;;;;;2.77;92.97;96425.09;2019651;80;20388;-74
2021/11/27 04:17:02;;;;;;;0.70;0.70;;;;;;;2.80;92.73;96426.75;2017284;80;20323;-75
2021/11/27 04:20:05;;;;;;;0.70;0.70;;;;;;;2.82;92.75;96424.97;2018377;80;20336;-75
2021/11/27 04:23:09;;;;;;;0.50;0.50;;;;;;;2.82;92.74;96430.94;2018562;80;20385;-75
2021/11/27 04:26:12;;;;;;;0.60;0.60;;;;;;;2.83;92.80;96429.22;2018644;80;20319;-75
2021/11/27 04:29:15;;;;;;;0.60;0.60;;;;;;;2.83;92.90;96435.19;2016844;80;20413;-74
2021/11/27 04:32:17;;;;;;;0.61;0.54;;;;;;;2.86;92.95;96440.25;2017711;78;53852;-75
2021/11/27 04:35:22;;;;;;;0.73;0.60;;;;;;;2.87;92.86;96441.09;2012904;80;20430;-76
2021/11/27 04:38:25;;;;;;;0.80;0.60;;;;;;;2.84;92.81;96444.56;2013956;80;20798;-77
2021/11/27 04:41:28;;;;;;;0.50;0.50;;;;;;;2.82;92.98;96443.75;2012456;80;20331;-77
2021/11/27 04:44:31;;;;;;;0.50;0.50;;;;;;;2.80;92.82;96437.84;2011980;80;20358;-77
2021/11/27 04:47:35;;;;;;;0.39;0.39;;;;;;;2.77;92.57;96453.28;2007476;78;21384;-77
2021/11/27 04:50:39;;;;;;;0.55;0.50;;;;;;;2.73;92.45;96452.50;2008234;81;20340;-76
2021/11/27 04:53:42;;;;;;;0.30;0.30;;;;;;;2.76;92.62;96456.72;2008215;81;20353;-76
2021/11/27 04:56:45;;;;;;;0.40;0.40;;;;;;;2.75;92.38;96462.72;2008595;81;20352;-76
2021/11/27 04:59:47;;;;;;;0.50;0.50;;;;;;;2.76;92.69;96461.00;2008970;81;21228;-76
2021/11/27 05:02:50;;;;;;;1.27;0.44;;;;;;;2.79;92.65;96463.47;2011977;78;24401;-76
2021/11/27 05:05:53;;;;;;;0.50;0.50;;;;;;;2.76;92.66;96461.00;2012846;80;20327;-76
2021/11/27 05:08:55;;;;;;;1.13;0.38;;;;;;;2.77;92.89;96467.81;2013536;80;20320;-77
2021/11/27 05:11:58;;;;;;;0.40;0.40;;;;;;;2.79;92.77;96478.84;2011605;80;20418;-77
2021/11/27 05:15:02;;;;;;;0.61;0.40;;;;;;;2.80;92.89;96481.38;2012327;80;20363;-78
2021/11/27 05:18:06;;;;;;;0.40;0.40;;;;;;;2.81;92.67;96479.66;2007411;78;29790;-77
2021/11/27 05:21:09;;;;;;;0.45;0.40;;;;;;;2.77;92.39;96485.72;2006451;81;20388;-77
2021/11/27 05:24:12;;;;;;;0.30;0.30;;;;;;;2.76;92.42;96484.88;2007477;81;20390;-77
2021/11/27 05:27:16;;;;;;;1.27;0.30;;;;;;;2.74;92.37;96486.66;2007001;81;20358;-77
2021/11/27 05:30:20;;;;;;;0.30;0.30;;;;;;;2.73;92.29;96497.78;2006682;78;21014;-77
2021/11/27 05:33:35;;;;;;;0.30;0.30;;;;;;;2.68;92.13;96489.31;2012492;80;20391;-77
2021/11/27 05:36:41;;;;;;;0.30;0.30;;;;;;;2.67;92.27;96487.63;2012937;80;20323;-77
2021/11/27 05:39:44;;;;;;;0.40;0.40;;;;;;;2.63;92.23;96489.41;2012271;80;20938;-76
2021/11/27 05:42:47;;;;;;;0.39;0.39;;;;;;;2.61;92.32;96498.00;2011820;80;20391;-76
2021/11/27 05:45:50;;;;;;;0.30;0.30;;;;;;;2.58;92.50;96506.59;2009752;78;24620;-76
2021/11/27 05:48:52;;;;;;;0.54;0.47;;;;;;;2.63;92.68;96519.31;2007026;81;20329;-76
2021/11/27 05:51:55;;;;;;;0.31;0.31;;;;;;;2.63;92.63;96514.19;2006632;81;20377;-76
2021/11/27 05:54:57;;;;;;;0.55;0.41;;;;;;;2.64;92.63;96515.88;2007280;81;20367;-76
2021/11/27 05:58:00;;;;;;;0.50;0.49;;;;;;;2.63;92.56;96519.31;2006927;81;20617;-76
2021/11/27 06:01:06;;;;;;;0.50;0.50;;;;;;;2.66;92.74;96514.97;2009722;77;26158;-76
2021/11/27 06:04:10;;;;;;;0.46;0.46;;;;;;;2.64;92.53;96521.81;2014139;80;20367;-75
2021/11/27 06:07:13;;;;;;;0.43;0.43;;;;;;;2.66;92.69;96524.38;2014996;80;20335;-75
2021/11/27 06:10:15;;;;;;;0.40;0.40;;;;;;;2.66;92.68;96520.09;2014821;80;20369;-75
2021/11/27 06:13:18;;;;;;;1.09;0.50;;;;;;;2.65;92.59;96526.06;2014356;80;20323;-75
2021/11/27 06:16:21;;;;;;;0.51;0.47;;;;;;;2.63;92.65;96529.53;2011897;78;25002;-75
2021/11/27 06:19:24;;;;;;;0.84;0.50;;;;;;;2.64;92.77;96533.78;2011716;81;20349;-75
2021/11/27 06:22:27;;;;;;;0.63;0.50;;;;;;;2.67;92.71;96541.41;2011498;81;20348;-75
2021/11/27 06:25:50;;;;;;;0.49;0.49;;;;;;;2.66;92.71;96542.28;2010689;80;20474;-75
2021/11/27 06:28:53;;;;;;;1.00;0.50;;;;;;;2.65;92.54;96538.03;2011042;80;20316;-75
2021/11/27 06:31:55;;;;;;;0.60;0.60;;;;;;;2.63;92.76;96540.63;2010649;81;20305;-75
2021/11/27 06:34:59;;;;;;;0.60;0.60;;;;;;;2.62;92.73;96549.19;2010148;81;20328;-75
2021/11/27 06:38:02;;;;;;;0.74;0.56;;;;;;;2.64;92.82;96550.00;2010647;80;20345;-75
2021/11/27 06:41:05;;;;;;;1.20;0.70;;;;;;;2.65;92.73;96551.69;2012853;81;20433;-75
2021/11/27 06:44:08;;;;;;;1.16;0.70;;;;;;;2.62;92.65;96561.16;2012763;81;20348;-75
2021/11/27 06:47:11;;;;;;;1.13;0.61;;;;;;;2.58;92.79;96562.09;2013273;78;31962;-75
2021/11/27 06:50:14;;;;;;;0.80;0.80;;;;;;;2.58;93.03;96567.22;2017598;80;20311;-75
2021/11/27 06:53:35;;;;;;;0.73;0.73;;;;;;;2.56;92.96;96571.53;2014197;80;20438;-75
2021/11/27 06:56:38;;;;;;;2.38;0.70;;;;;;;2.55;93.02;96575.81;1996601;80;20327;-75
2021/11/27 06:59:42;;;;;;;0.70;0.70;;;;;;;2.56;93.22;96581.78;2004260;80;20347;-75
2021/11/27 07:02:50;;;;;;;0.73;0.71;;;;;;;2.58;93.33;96583.44;2006551;80;20346;-75
2021/11/27 07:05:55;;;;;;;0.60;0.60;;;;;;;2.63;93.30;96591.03;2007300;80;20361;-74
2021/11/27 07:09:33;;;;;;;0.80;0.80;;;;;;;2.65;93.32;96597.78;2006259;80;20319;-74
2021/11/27 07:12:47;;;;;;;0.84;0.76;;;;;;;2.65;93.21;96597.78;2006931;80;20515;-77
2021/11/27 07:16:03;;;;;;;1.19;0.80;;;;;;;2.62;93.11;96602.97;2009377;70;20457;-75
2021/11/27 07:19:22;;;;;;;0.98;0.82;;;;;;;2.58;93.03;96609.03;2008306;80;20343;-76
2021/11/27 07:22:58;;;;;;;0.80;0.80;;;;;;;2.57;93.25;96621.88;2009454;80;21157;-76
2021/11/27 07:26:01;;;;;;;2.13;1.13;;;;;;;2.56;93.47;96626.16;2010784;80;20165;-76
2021/11/27 07:29:04;;;;;;;0.90;0.88;;;;;;;2.60;93.52;96632.06;2011376;80;20339;-77
2021/11/27 07:32:08;;;;;;;2.11;1.10;;;;;;;2.63;93.53;96637.13;2011525;78;20471;-77
2021/11/27 07:35:10;;;;;;;1.84;1.00;;;;;;;2.64;93.52;96649.91;2012183;80;20844;-76
2021/11/27 07:38:13;;;;;;;0.88;0.88;;;;;;;2.68;93.47;96655.81;2012556;80;20427;-77
2021/11/27 07:41:16;;;;;;;0.93;0.93;;;;;;;2.67;93.47;96659.25;2011462;80;20408;-76
2021/11/27 07:44:19;;;;;;;1.19;0.90;;;;;;;2.70;93.59;96667.75;2011545;80;20323;-76
2021/11/27 07:47:22;;;;;;;1.75;0.90;;;;;;;2.73;93.63;96665.13;2010383;78;37683;-76
2021/11/27 07:50:24;;;;;;;1.05;1.00;;;;;;;2.76;93.52;96673.63;2013067;80;20307;-76
2021/11/27 07:53:28;;;;;;;1.29;1.19;;;;;;;2.76;93.54;96668.50;2014863;80;20977;-76
2021/11/27 07:56:31;;;;;;;1.11;1.01;;;;;;;2.78;93.63;96670.16;2013935;80;20307;-75
2021/11/27 07:59:34;;;;;;;1.70;1.02;;;;;;;2.81;93.56;96677.78;2015108;80;20353;-75
2021/11/27 08:02:37;;;;;;;1.09;0.99;;;;;;;2.84;93.54;96676.88;2014297;78;22306;-76
2021/11/27 08:05:40;;;;;;;0.91;0.91;;;;;;;2.85;93.41;96684.53;2012868;80;20443;-76
2021/11/27 08:08:43;;;;;;;1.26;1.16;;;;;;;2.88;93.44;96679.38;2013564;80;20415;-76
2021/11/27 08:11:45;;;;;;;1.38;1.27;;;;;;;2.89;93.15;96672.56;2010584;80;20335;-76
2021/11/27 08:14:48;;;;;;;1.40;1.30;;;;;;;2.87;93.06;96680.25;2013447;80;20839;-77
2021/11/27 08:17:51;;;;;;;2.34;1.36;;;;;;;2.89;93.25;96688.78;2012661;78;23723;-77
2021/11/27 08:20:54;;;;;;;1.55;1.44;;;;;;;2.93;93.18;96689.56;2012301;80;20345;-75
2021/11/27 08:24:17;;;;;;;2.00;1.42;;;;;;;2.98;93.20;96691.16;2012374;80;20877;-76
2021/11/27 08:27:21;;;;;;;1.52;1.42;;;;;;;3.02;93.07;96689.38;2012387;80;20334;-76
2021/11/27 08:30:26;;;;;;;2.53;1.20;;;;;;;3.07;93.01;96695.28;2010730;78;25269;-76
2021/11/27 08:33:29;;;;;;;2.15;1.40;;;;;;;3.13;92.82;96696.88;2011633;80;20324;-76
2021/11/27 08:36:32;;;;;;;3.85;1.40;;;;;;;3.17;92.57;96703.63;2013436;80;20373;-76
2021/11/27 08:39:35;;;;;;;1.40;1.31;;;;;;;3.17;92.52;96699.34;2011588;80;20440;-76
2021/11/27 08:42:38;;;;;;;2.06;1.69;;;;;;;3.21;92.40;96700.13;2011965;80;20299;-76
2021/11/27 08:45:41;;;;;;;13.00;2.04;;;;;;;3.22;92.27;96715.47;2012104;78;20873;-77
2021/11/27 08:48:44;;;;;;;1.69;1.58;;;;;;;3.29;92.22;96717.06;2013130;80;20316;-78
2021/11/27 08:51:47;;;;;;;1.44;1.34;;;;;;;3.37;92.09;96709.22;2012922;80;20830;-76
2021/11/27 08:54:50;;;;;;;1.69;1.59;;;;;;;3.56;92.08;96714.84;2012033;80;20320;-76
2021/11/27 08:57:52;;;;;;;1.58;1.39;;;;;;;3.77;91.58;96718.69;2012682;80;20307;-77
2021/11/27 09:00:55;;;;;;;2.25;1.30;;;;;;;3.99;90.98;96729.38;2012401;80;20807;-77
2021/11/27 09:03:59;;;;;;;1.20;1.15;;;;;;;4.24;90.24;96721.09;2011528;80;20478;-76
2021/11/27 09:07:03;;;;;;;2.45;1.58;;;;;;;4.48;89.33;96724.81;2011610;80;20384;-76
2021/11/27 09:10:07;;;;;;;2.04;1.50;;;;;;;4.46;88.01;96730.88;2013393;80;20332;-77
2021/11/27 09:13:10;;;;;;;1.23;1.13;;;;;;;4.49;87.30;96736.81;2012938;80;20347;-77
2021/11/27 09:16:13;;;;;;;1.70;1.39;;;;;;;4.45;86.38;96744.59;2011275;78;24528;-76
2021/11/27 09:19:34;;;;;;;1.67;1.31;;;;;;;4.41;86.33;96745.53;2013868;80;20355;-76
2021/11/27 09:22:37;;;;;;;1.70;1.55;;;;;;;4.40;86.69;96749.84;2011888;80;20327;-76
2021/11/27 09:25:40;;;;;;;1.49;1.35;;;;;;;4.47;86.87;96755.69;2009507;80;20335;-76
2021/11/27 09:28:43;;;;;;;1.71;1.30;;;;;;;4.54;86.62;96763.22;2009783;80;20479;-75
2021/11/27 09:31:45;;;;;;;2.66;1.23;;;;;;;4.55;86.25;96761.50;2009221;78;20464;-76
2021/11/27 09:34:48;;;;;;;2.75;1.54;;;;;;;4.51;86.10;96765.03;2009755;80;21292;-76
2021/11/27 09:37:52;;;;;;;1.15;1.05;;;;;;;4.65;85.98;96774.97;2008961;80;20412;-76
2021/11/27 09:41:11;;;;;;;2.50;1.46;;;;;;;4.91;84.74;96784.66;2008461;80;20444;-77
2021/11/27 09:44:17;;;;;;;3.03;1.50;;;;;;;5.09;84.54;96786.78;2009341;80;20401;-77
2021/11/27 09:47:21;;;;;;;3.35;1.77;;;;;;;5.04;83.12;96801.47;2008462;78;24487;-76
2021/11/27 09:50:24;;;;;;;1.58;1.45;;;;;;;4.86;83.50;96805.34;2007945;80;20445;-77
2021/11/27 09:53:27;;;;;;;2.54;1.34;;;;;;;4.74;83.65;96813.31;2008140;80;20327;-75
2021/11/27 09:56:30;;;;;;;1.64;1.48;;;;;;;4.54;83.46;96824.91;2007531;80;20311;-75
2021/11/27 09:59:33;;;;;;;1.51;1.19;;;;;;;4.33;83.79;96825.38;2006495;80;20323;-75
2021/11/27 10:02:39;;;;;;;1.26;1.08;;;;;;;4.27;84.70;96828.03;2005659;78;21740;-74
2021/11/27 10:05:51;;;;;;;2.97;1.31;;;;;;;4.16;84.65;96841.13;2007350;80;20368;-74
2021/11/27 10:08:55;;;;;;;1.59;1.33;;;;;;;4.08;84.83;96835.28;2007676;80;20348;-74
2021/11/27 10:11:58;;;;;;;1.34;1.20;;;;;;;4.09;85.29;96842.09;2008286;80;20327;-74
2021/11/27 10:15:01;;;;;;;2.15;1.40;;;;;;;4.09;85.14;96838.69;2011077;80;20393;-74
2021/11/27 10:18:24;;;;;;;2.29;1.16;;;;;;;4.09;85.26;96834.38;2003999;78;31502;-74
2021/11/27 10:21:27;;;;;;;1.27;1.10;;;;;;;4.08;85.26;96852.41;2000816;81;20321;-74
2021/11/27 10:24:32;;;;;;;1.48;1.20;;;;;;;4.05;85.40;96840.47;2000970;81;20397;-74
2021/11/27 10:27:38;;;;;;;2.40;1.25;;;;;;;4.05;85.93;96842.19;2001783;81;20360;-74
2021/11/27 10:30:45;;;;;;;1.51;1.41;;;;;;;4.06;86.17;96843.88;2002603;78;26015;-74
2021/11/27 10:33:59;;;;;;;1.40;1.31;;;;;;;4.08;86.03;96839.56;2001708;81;20331;-74
2021/11/27 10:37:02;;;;;;;2.74;1.17;;;;;;;4.11;86.25;96842.06;2001967;81;20337;-74
2021/11/27 10:40:08;;;;;;;3.03;1.14;;;;;;;4.12;85.60;96846.31;2000774;81;20378;-74
2021/11/27 10:43:11;;;;;;;2.05;0.91;;;;;;;4.15;85.68;96844.56;2001286;81;20393;-74
2021/11/27 10:46:27;;;;;;;1.58;1.08;;;;;;;4.22;85.72;96845.28;2002066;80;23825;-74
2021/11/27 10:49:30;;;;;;;1.52;1.16;;;;;;;4.29;86.03;96838.28;2006568;80;20396;-74
2021/11/27 10:52:37;;;;;;;3.72;1.10;;;;;;;4.37;86.39;96838.97;2006581;80;20345;-74
2021/11/27 10:55:40;;;;;;;1.69;1.21;;;;;;;4.48;86.53;96844.72;2003030;80;20416;-76
2021/11/27 10:59:00;;;;;;;2.03;0.80;;;;;;;4.51;85.54;96840.38;2004678;80;20668;-74
2021/11/27 11:02:11;;;;;;;2.34;0.82;;;;;;;4.55;85.23;96839.44;2004516;78;23815;-74
2021/11/27 11:05:14;;;;;;;1.17;0.90;;;;;;;4.52;83.38;96844.63;2007181;80;20430;-74
2021/11/27 11:08:30;;;;;;;2.61;0.85;;;;;;;4.52;83.09;96852.34;2005813;80;20482;-74
2021/11/27 11:11:33;;;;;;;1.09;0.77;;;;;;;4.57;83.49;96859.94;2007985;80;20311;-75
2021/11/27 11:14:36;;;;;;;1.83;1.01;;;;;;;4.58;82.95;96864.22;2008189;80;21005;-75
2021/11/27 11:17:38;;;;;;;2.42;0.84;;;;;;;4.62;83.49;96862.41;2006862;79;21739;-75
2021/11/27 11:21:07;;;;;;;1.61;0.80;;;;;;;4.66;83.41;96876.88;2007455;80;21228;-75
2021/11/27 11:24:22;;;;;;;3.94;0.98;;;;;;;4.73;83.53;96869.03;2006627;80;20367;-74
2021/11/27 11:27:35;;;;;;;2.26;0.80;;;;;;;4.75;82.88;96876.69;2006677;80;20234;-76
2021/11/27 11:30:39;;;;;;;4.06;0.91;;;;;;;4.77;82.95;96878.34;2004856;78;73057;-76
2021/11/27 11:33:46;;;;;;;1.79;0.81;;;;;;;4.81;82.70;96886.84;2008689;80;20331;-73
2021/11/27 11:36:49;;;;;;;2.81;0.90;;;;;;;4.87;82.65;96883.31;2006722;80;20360;-75
2021/11/27 11:39:53;;;;;;;2.83;0.76;;;;;;;4.90;82.29;96885.81;2009363;80;20400;-75
2021/11/27 11:42:56;;;;;;;2.99;0.73;;;;;;;4.85;81.74;96891.91;2009115;80;20323;-76
2021/11/27 11:45:59;;;;;;;2.00;0.60;;;;;;;4.83;81.56;96896.19;2006576;78;21969;-76
2021/11/27 11:49:02;;;;;;;3.47;0.71;;;;;;;4.76;81.33;96889.50;2007626;80;20345;-75
2021/11/27 11:52:29;;;;;;;1.98;0.70;;;;;;;4.75;81.70;96887.81;2007820;80;20913;-76
2021/11/27 11:55:49;;;;;;;1.79;0.70;;;;;;;4.81;82.11;96897.13;2007281;80;20353;-75
2021/11/27 11:58:51;;;;;;;3.31;0.84;;;;;;;4.87;82.30;96888.44;2009914;80;20340;-76
2021/11/27 12:02:16;;;;;;;2.46;0.70;;;;;;;4.98;82.04;96894.19;2007508;78;23057;-77
2021/11/27 12:05:22;;;;;;;2.47;0.70;;;;;;;4.99;81.59;96889.00;2008532;80;20762;-77
2021/11/27 12:08:50;;;;;;;2.35;0.84;;;;;;;4.96;81.87;96893.38;2009222;80;20347;-78
2021/11/27 12:11:58;;;;;;;1.76;0.50;;;;;;;4.82;80.31;96886.78;2009396;80;20381;-78
2021/11/27 12:15:01;;;;;;;2.01;0.69;;;;;;;4.80;80.48;96890.28;2009133;80;20397;-77
2021/11/27 12:18:12;;;;;;;3.21;0.90;;;;;;;4.84;80.73;96885.03;2004531;78;25361;-77
2021/11/27 12:21:16;;;;;;;2.56;0.79;;;;;;;4.90;80.24;96880.66;2003756;81;20340;-76
2021/11/27 12:24:23;;;;;;;1.29;0.60;;;;;;;4.88;79.48;96880.69;1999164;81;20356;-76
2021/11/27 12:27:26;;;;;;;2.95;0.76;;;;;;;4.83;79.61;96872.22;2003544;81;20380;-77
2021/11/27 12:30:41;;;;;;;2.50;1.00;;;;;;;4.80;79.54;96875.72;2001250;81;22346;-76
2021/11/27 12:33:59;;;;;;;2.99;1.04;;;;;;;4.79;79.42;96886.03;2003262;81;20328;-77
2021/11/27 12:37:02;;;;;;;3.53;0.66;;;;;;;4.76;79.75;96883.53;2003216;81;20317;-79
2021/11/27 12:40:45;;;;;;;3.06;0.90;;;;;;;4.71;80.39;96890.50;2002156;81;20308;-77
2021/11/27 12:44:13;;;;;;;3.64;0.80;;;;;;;4.55;79.96;96908.81;2002520;81;20394;-78
2021/11/27 12:47:26;;;;;;;4.18;1.10;;;;;;;4.11;79.53;96924.22;2005587;78;25914;-77
2021/11/27 12:50:29;;;;;;;2.04;0.96;;;;;;;3.89;80.61;96923.78;2007930;80;20381;-77
2021/11/27 12:53:32;;;;;;;4.43;0.76;;;;;;;3.53;80.64;96923.53;2005329;80;20416;-78
2021/11/27 12:56:43;;;;;;;3.89;0.57;;;;;;;3.34;81.71;96911.88;2005373;80;20354;-77
2021/11/27 13:00:02;;;;;;;3.11;0.70;;;;;;;3.24;82.70;96908.63;2005633;80;20828;-77
2021/11/27 13:03:06;;;;;;;3.11;0.59;;;;;;;3.33;83.77;96908.47;2001613;78;26751;-80
2021/11/27 13:06:08;;;;;;;2.56;0.40;;;;;;;3.56;84.41;96913.22;2006906;81;20210;-82
2021/11/27 13:09:32;;;;;;;4.14;0.40;;;;;;;3.85;84.87;96917.00;2005972;81;20449;-81
2021/11/27 13:13:03;;;;;;;2.28;0.60;;;;;;;4.08;84.94;96916.59;2006594;81;20321;-80
2021/11/27 13:16:09;;;;;;;1.51;0.52;;;;;;;4.22;84.50;96909.47;2005590;78;27589;-80
2021/11/27 13:19:27;;;;;;;2.09;0.49;;;;;;;4.32;84.09;96908.44;2011403;80;20696;-79
2021/11/27 13:22:35;;;;;;;2.90;0.57;;;;;;;4.40;83.96;96909.13;2010284;80;20336;-80
2021/11/27 13:25:46;;;;;;;5.06;0.73;;;;;;;4.47;83.83;96908.09;2011273;80;20357;-79
2021/11/27 14:12:53;;;;;;;5.21;0.70;;;;;;;4.00;82.25;96951.84;2067944;77;20897;-71
2021/11/27 14:15:57;;;;;;;9.09;0.77;;;;;;;4.03;81.33;96951.78;2052957;76;23700;-71
2021/11/27 14:19:11;;;;;;;17.48;2.34;;;;;;;4.06;79.86;96957.69;2046016;79;20563;-71
2021/11/27 14:22:15;;;;;;;7.88;1.14;;;;;;;3.98;79.18;96957.00;2046503;79;20411;-70
2021/11/27 14:25:18;;;;;;;4.43;1.10;;;;;;;4.02;79.18;96961.19;2046699;79;20368;-74
2021/11/27 14:28:22;;;;;;;14.50;1.56;;;;;;;4.01;78.79;96959.50;2044937;79;20425;-71
2021/11/27 14:31:33;;;;;;;6.18;1.05;;;;;;;4.00;79.41;96955.25;2042738;76;25600;-72
2021/11/27 14:34:37;;;;;;;4.70;0.99;;;;;;;3.99;80.17;96958.69;2045510;79;20334;-72
2021/11/27 14:37:50;;;;;;;5.22;1.00;;;;;;;3.86;83.39;96959.78;2045115;79;20315;-75
2021/11/27 14:40:57;;;;;;;3.08;0.80;;;;;;;3.96;84.04;96961.31;2046368;79;20344;-78
2021/11/27 14:44:06;;;;;;;5.10;0.98;;;;;;;4.08;84.39;96963.66;2046997;79;20344;-76
2021/11/27 14:47:09;;;;;;;3.40;0.93;;;;;;;4.09;84.05;96965.34;2046685;76;22017;-79
2021/11/27 14:50:15;;;;;;;8.94;1.42;;;;;;;4.04;83.51;96959.44;2051074;79;20184;-79
2021/11/27 14:53:27;;;;;;;4.29;0.80;;;;;;;3.96;82.97;96970.75;2050002;79;20354;-79
2021/11/27 14:56:31;;;;;;;3.06;0.75;;;;;;;3.86;83.42;96978.59;2050910;79;20350;-78
2021/11/27 14:59:51;;;;;;;3.09;0.79;;;;;;;3.79;84.45;96981.28;2051228;79;20306;-79
2021/11/27 15:02:53;;;;;;;2.09;0.75;;;;;;;3.79;85.14;96974.44;2042297;76;26048;-78
2021/11/27 15:05:56;;;;;;;5.05;0.89;;;;;;;3.77;85.49;96985.56;2045171;79;20328;-80
2021/11/27 15:08:59;;;;;;;1.44;0.75;;;;;;;3.76;85.91;96978.75;2045175;79;20381;-79
2021/11/27 15:12:02;;;;;;;4.15;0.96;;;;;;;3.77;86.52;96989.03;2044360;79;20409;-79
2021/11/27 15:15:07;;;;;;;3.95;0.94;;;;;;;3.77;87.02;96991.59;2043227;79;20419;-79
2021/11/27 15:18:12;;;;;;;2.84;0.80;;;;;;;3.80;86.89;96991.53;2049110;76;75266;-79
2021/11/27 15:21:15;;;;;;;3.53;1.19;;;;;;;3.84;86.08;96987.19;2049831;79;20382;-80
2021/11/27 15:24:20;;;;;;;3.19;0.94;;;;;;;3.85;85.56;96994.88;2050598;79;20349;-80
2021/11/27 15:27:26;;;;;;;3.47;0.88;;;;;;;3.82;85.60;97001.78;2049371;79;20813;-80
2021/11/27 15:30:30;;;;;;;3.66;1.19;;;;;;;3.77;85.37;97006.09;2047075;79;20337;-79